Hlavní strana
METAR-TAF:

METAR-TAF

Letiště :

Voroněž, Rusko

zeměpisná šířka: 51-39N, zeměpisná délka: 039-15E, výška: 154 m

Aktuální stav počasí

Zpráva byla vytvořena před 27 minutami, v 04:30 UTC
Západoseverozápadní vítr 8 kt
Teplota 1°C
Vlhkost vzduchu 64%
Tlak 1024 hPa
Viditelnost 10 km a více
Žádná oblačnost pod 1500 m, nevyskytují se cumulonimby.

METAR: UUOO 050430Z 29004MPS CAVOK 01/M05 Q1024 R30/090070 NOSIG RMK QFE754

Čas: 07:57 (04:57 UTC)

Předpověď počasí

Zpráva byla vytvořena před 2 hodinami a 57 minutami, v 02:00 UTC
Předpověď platná od 05 v 03 UTC do 05 v 12 UTC
Západní vítr 6 kt
Viditelnost 10 km a více
Žádná oblačnost pod 1500 m, nevyskytují se cumulonimby.

TAF: UUOO 050200Z 0503/0512 28003MPS CAVOK

Stav a předpovědi počasí z více než 4 000 letišť (zprávy METAR a TAF).

Červené a žluté tečky na mapě představují dostupné meteorologické stanice.

Když kurzor umístíte na tečku, zobrazí se název stanice.

Pak kliknutím zobrazíte stav a předpověď počasí.

Chcete-li změnit mapu, kliknutím na zelené tlačítko se znaménkem +mapu přiblížíte, kliknutím na zelené tlačítko se znaménkem – mapu oddálíte a kliknutím na zelené šipky přejdete na sousední mapy.


METAR-TAF: